Terminal Aerodrome Forecast
Issued by NWS Huntsville, AL

Home | Current Version | Previous Version | Text Only | Print | Product List | Glossary On
Versions: 1 2 3 4 5 6 7 8 9 10 11 12 13 14 15 16 17 18 19 20 21 22 23 24 25 26 27 28 29 30 31 32 33 34 35 36
951
FTUS44 KHUN 182329
TAFMSL
TAF
KMSL 182329Z 1900/1924 31020G30KT 6SM -SHRA BR SCT015 BKN025
     FM190200 32015G25KT P6SM SCT025 BKN050
     FM190400 33012KT P6SM SCT250
     FM191400 32012G17KT P6SM SKC=

USA.gov is the U.S. government's official web portal to all federal, state and local government web resources and services.